Weather at Enrique Olaya Herrera Airport

Public forecast

Using degrees Celsius for public forecast. Weather courtesy of forecast.io.

Current aviation weather report (METAR) for Enrique Olaya Herrera Airport

Retrieved 2022/08/13 18:00 UTC (47 minutes ago):

SKMD 131800Z 04006KT 9000 FEW035 SCT100 25/17 Q1022 RMK HZ A3019

Closest aviation forecast (TAF) to Enrique Olaya Herrera Airport

Closest forecast is Jose Maria Córdova International Airport, 10.5 nm (19.5 km) ESE. Retrieved 2022/08/13 18:52 UTC (0 seconds ago):

TAF SKRG 131630Z 1318/1418 14008KT 9999 SCT025 TEMPO 1320/1323 DZ SCT020TCU BECMG 1400/1402 VRB02KT SCT015 TEMPO 1403/1406 DZ BKN010 TEMPO 1408/1412 4000 DZ BCFG BKN005 BECMG 1413/1415 09010KT TX20/1318Z TN13/1410Z